Decoded Metar for EHVL (VLIELAND ISLAND in NETHERLANDS) (IATA:N/A) | Meteo·Mobile Aviation Weather
aviador You're here:

EHVL Decoded Metar

VLIELAND ISLAND in NETHERLANDS
Report Time2018-10-20 05:55:00
UTC Time2018-10-20 06:07:06
Flight Rules mvfr MVFR
Wind280° at 08 kt
W.Rank280° ranks 8
Current wind is below 280° avg. (15.9)
Visibility9999 m
Phenomena:N/A
Clouds:Scattered 025 Hf
Overcast 028 Hf
Expected CloudBase > 1,600 ft AGL from Temp-Dew spread
Ceiling2,800 ft
Temp13°C (ISA -2)
Dew Point09°C (77% RH)
AAT9.9°C
QNH1028 hPa
Density Alt-568 ft
Elevation16 ft
Report Wrong Elevation
Raw Report
METAR EHVL 200555Z AUTO 28008KT 9999 SCT025 OVC028 13/09 Q1028 BLU=

Extra information for EHVL:More info

Metar Taf Metar & Taf Last 4 Metars F.Rules Stats Wind Profile Meteogram Temp Stats Airport Information Weather charts Add Link Nearby VenuesMetar ALERT Operation Metar Decoded Social comments